Hardeeville, SC

3:14 PM EDT on August 23, 2014 (GMT -0400)
Tradition | Change Station
CLOSE
Current Station
Personal Weather Station
Location: Hardeeville, SC
Elevation: 13 ft
Nearby Weather Stations
Active Advisory: Heat Advisory Active Notice: Record Report, Public Information Statement

Elev 13 ft 32.32 °N, 81.02 °W | Updated 21 seconds ago

Scattered Clouds
Scattered Clouds
102.0 °F
Feels Like
N
2.0
Wind Variable Wind from North
Gusts 9.0 mph

Today
High -- | Low -- °F
--% Chance of Precip.
Yesterday
High -- | Low -- °F
Precip. -- in
6:53 AM 7:59 PM
Waning Crescent, 3% visible
Pressure 29.88 in
Visibility 10.0 miles
Clouds Few 4500 ft
Scattered Clouds 25000 ft
Dew Point 93 °F
Humidity 76%
Rainfall 0.00 in
Snow Depth Not available.
UV 9 out of 12
Pollen 6.40 out of 12
Air Quality Not available.
Flu Activity Not available.
METAR KSAV 231853Z 34012KT 10SM FEW045 SCT250 38/20 A2989 RMK AO2 SLP119 T03780200

More Conditions Fewer Conditions

Pressure 29.88 in
Visibility 10.0 miles
Clouds Few 4500 ft
Scattered Clouds 25000 ft
Dew Point 93 °F
Humidity 76%
Rainfall 0.00 in
Snow Depth Not available.
UV 9 out of 12
Pollen 6.40 out of 12
Air Quality Not available.
Flu Activity Not available.
METAR KSAV 231853Z 34012KT 10SM FEW045 SCT250 38/20 A2989 RMK AO2 SLP119 T03780200

More Conditions Fewer Conditions

10-Day Weather Forecast

Almanac

Astronomy

Aug. 23, 2014 Rise Set
Actual Time 6:53 AM EDT 7:59 PM EDT
Civil Twilight 6:27 AM EDT 8:24 PM EDT
Nautical Twilight 5:57 AM EDT 8:54 PM EDT
Astronomical Twilight 5:26 AM EDT 9:25 PM EDT
Moon 5:10 AM EDT 6:42 PM EDT
Length of Visible Light 13h 56m
Length of Day
13h 06m
Tomorrow will be 1m 50s shorter.
Waning Crescent, 3% of the Moon is Illuminated
Today
Waning Crescent
Aug 25
New
Sep 2
First Quarter
Sep 8
Full
Sep 15
Last Quarter

Today's Extremes

State Highs State Lows

Community

WunderPhotos

Upload Photos

1,746,585 photos uploaded!

WunderBlogs® & News

Nearby

Snow Depth

Station Depth Elevation
No new snow has been reported.

Earthquake Activity

City Distance Mag. Time & Date
No recent earthquake activity has been reported nearby.
Minimum magnitude displayed is 2.5.

Coastal Water Temperatures

Place Temperature
No Stations Reporting

Nearby Weather Stations